METAR Data
IDs: Format: Raw Decoded Include TAF

Data at: 0729 UTC 23 Feb 2019

PACV 230653Z 00000KT 10SM CLR M06/M12 A3028 RMK AO2 SLP255 T10611122
PACV 230553Z 36003KT 10SM CLR M07/M13 A3026 RMK AO2 SLP248 4/009 T10671133 10044 21072 51025
PACV 230453Z 00000KT 10SM CLR M04/M14 A3025 RMK AO2 SLP243 T10391139
PACV 230353Z 00000KT 10SM CLR M02/M14 A3022 RMK AO2 SLP233 T10221144
PACV 230253Z 01003KT 10SM CLR 02/M19 A3019 RMK AO2 SLP224 T00221189 53022
PACV 230153Z 07006KT 10SM CLR 03/M19 A3017 RMK AO2 SLP215 T00331189
PACV 230053Z 07007KT 10SM CLR 04/M18 A3014 RMK AO2 SLP207 T00391183
PACV 222353Z 02008KT 10SM CLR 04/M18 A3013 RMK AO2 SLP202 4/009 T00391178 10050 21028 51025
PACV 222253Z 05009KT 10SM CLR 04/M17 A3012 RMK AO2 SLP200 T00441172
PACV 222153Z 04009KT 10SM CLR 04/M17 A3008 RMK AO2 SLP186 T00441172
PACV 222053Z 36010G15KT 330V030 10SM FEW085 04/M17 A3005 RMK AO2 SLP177 T00391172 53029
PACV 221953Z 02007KT 10SM FEW085 02/M17 A3002 RMK AO2 SLP167 T00221172
PACV 221853Z 02006G17KT 10SM FEW085 02/M17 A2999 RMK AO2 SLP156 T00171172
PACV 221753Z 00000KT 10SM FEW085 M03/M13 A2997 RMK AO2 SLP148 4/009 T10281133 10006 21061 53028
PACV 221653Z 11003KT 10SM CLR M06/M13 A2993 RMK AO2 SLP134 T10561133
PACV 221553Z VRB03KT 10SM CLR M02/M14 A2990 RMK AO2 SLP127 T10171144
PACV 221453Z 02006KT 10SM CLR M01/M16 A2988 RMK AO2 SLP119 T10061156 51020
PACV 221353Z 02009KT 10SM CLR 01/M17 A2986 RMK AO2 SLP113 T00061167
PACV 221253Z 02004KT 10SM CLR M01/M15 A2985 RMK AO2 SLP107 T10061150
PACV 221153Z 29003KT 10SM CLR M02/M14 A2982 RMK AO2 SLP099 T10171139 10017 21017 53018
PACV 221053Z 35004KT 10SM CLR 00/M14 A2979 RMK AO2 SLP088 T00001139
PACV 220953Z 33012KT 10SM CLR 00/M13 A2978 RMK AO2 SLP085 T00001128
PACV 220853Z 34011KT 10SM CLR 01/M13 A2977 RMK AO2 SLP081 T00061128 400560000 51033
PACV 220753Z 34008KT 10SM CLR 01/M12 A2974 RMK AO2 SLP072 T00061117
PACV 220653Z 33011KT 10SM CLR 01/M11 A2971 RMK AO2 SLP062 T00111111
PACV 220553Z 34009G18KT 10SM CLR 01/M11 A2967 RMK AO2 SLP048 4/009 T00111106 10050 20011 51026
PACV 220453Z 34009KT 10SM FEW120 02/M11 A2966 RMK AO2 SLP043 T00221111
PACV 220353Z 36010G14KT 10SM FEW120 03/M12 A2963 RMK AO2 SLP033 T00281117
PACV 220253Z 01009KT 10SM FEW120 SCT180 03/M11 A2960 RMK AO2 SLP022 T00331106 53033
PACV 220153Z 35009G19KT 10SM FEW120 SCT180 05/M10 A2956 RMK AO2 SLP010 T00501100
PACV 220053Z 35006KT 10SM SCT180 04/M07 A2952 RMK AO2 SLP998 T00391072
PACV 212353Z 34009KT 10SM SCT160 04/M07 A2950 RMK AO2 SLP989 4/009 60000 T00441067 10056 20006 53016
PACV 212253Z 35011G18KT 10SM SCT150 06/M07 A2948 RMK AO2 SLP983 T00561072
PACV 212153Z 31008KT 10SM SCT140 04/M05 A2946 RMK AO2 SLP976 T00441050
PACV 212053Z 33008KT 10SM SCT100 04/M04 A2945 RMK AO2 SLP973 60000 T00391044 53002
PACV 211953Z 11004KT 10SM BKN090 01/M02 A2945 RMK AO2 SLP971 T00061022